Time;durP1;ratioP1;P1;durP2;ratioP2;P2;SDS_P1;SDS_P2;PMS_P1;PMS_P2;Temp;Humidity;BMP_temperature;BMP_pressure;BME280_temperature;BME280_humidity;BME280_pressure;Samples;Min_cycle;Max_cycle;Signal;HPM_P1;HPM_P2
2022/05/16 00:00:17;;;;;;;7.53;2.20;;;;;;;10.64;63.92;100295.81;4233904;28;21248;-67
2022/05/16 00:02:44;;;;;;;5.87;2.40;;;;;;;10.68;63.53;100297.22;4246173;28;21643;-67
2022/05/16 00:05:11;;;;;;;10.50;2.13;;;;;;;10.77;62.97;100302.47;4243540;28;20285;-66
2022/05/16 00:07:37;;;;;;;4.40;1.90;;;;;;;10.76;63.52;100294.63;4241459;28;20230;-66
2022/05/16 00:10:05;;;;;;;6.80;2.07;;;;;;;10.85;63.05;100299.03;4234712;28;20740;-67
2022/05/16 00:12:31;;;;;;;5.77;2.30;;;;;;;10.87;62.77;100299.75;4238362;28;21829;-66
2022/05/16 00:14:58;;;;;;;4.80;2.20;;;;;;;10.74;63.09;100302.75;4241601;28;20226;-66
2022/05/16 00:17:25;;;;;;;5.30;2.10;;;;;;;10.54;64.47;100306.53;4234997;28;20242;-70
2022/05/16 00:19:51;;;;;;;6.37;1.70;;;;;;;10.61;63.91;100302.28;4240912;28;20286;-66
2022/05/16 00:22:18;;;;;;;5.17;1.83;;;;;;;10.57;64.17;100309.72;4246489;28;20312;-66
2022/05/16 00:24:45;;;;;;;8.00;2.30;;;;;;;10.67;63.88;100311.47;4240351;28;20363;-68
2022/05/16 00:27:12;;;;;;;5.93;2.27;;;;;;;10.63;63.85;100307.44;4235697;28;21645;-67
2022/05/16 00:29:39;;;;;;;4.93;1.90;;;;;;;10.56;64.51;100309.88;4242180;28;20231;-66
2022/05/16 00:32:07;;;;;;;7.93;2.10;;;;;;;10.59;64.45;100308.75;4240361;28;20300;-66
2022/05/16 00:34:33;;;;;;;9.23;2.27;;;;;;;10.54;64.71;100306.53;4241018;28;20231;-67
2022/05/16 00:37:00;;;;;;;6.00;2.20;;;;;;;10.48;64.97;100310.59;4241739;28;20231;-68
2022/05/16 00:39:26;;;;;;;4.93;2.03;;;;;;;10.45;65.65;100313.56;4241219;28;22313;-67
2022/05/16 00:41:53;;;;;;;5.23;2.03;;;;;;;10.40;66.00;100318.50;4238871;28;20273;-66
2022/05/16 00:44:20;;;;;;;6.73;2.40;;;;;;;10.39;66.02;100323.94;4240722;28;20254;-65
2022/05/16 00:46:48;;;;;;;4.93;2.33;;;;;;;10.33;66.64;100318.22;4230378;28;21272;-67
2022/05/16 00:49:29;;;;;;;9.00;2.17;;;;;;;10.24;67.37;100323.56;4233800;28;20233;-65
2022/05/16 00:52:04;;;;;;;7.33;2.20;;;;;;;10.15;67.81;100318.13;4228227;28;20301;-67
2022/05/16 00:54:43;;;;;;;5.20;2.30;;;;;;;10.12;67.85;100320.25;4224285;28;20239;-67
2022/05/16 00:57:13;;;;;;;6.97;2.43;;;;;;;10.06;68.55;100326.94;4234063;28;20238;-66
2022/05/16 00:59:52;;;;;;;8.30;2.63;;;;;;;10.00;68.86;100316.91;4225575;28;21233;-68
2022/05/16 01:05:06;;;;;;;6.00;2.60;;;;;;;9.89;69.45;100319.75;4232657;28;20251;-66
2022/05/16 01:07:36;;;;;;;10.67;3.07;;;;;;;9.81;69.72;100330.22;4229600;28;20242;-67
2022/05/16 01:10:05;;;;;;;6.60;2.77;;;;;;;9.73;70.45;100322.97;4218992;28;20229;-68
2022/05/16 01:12:37;;;;;;;5.37;2.60;;;;;;;9.68;70.43;100327.88;4229192;28;20298;-66
2022/05/16 01:15:10;;;;;;;9.83;2.57;;;;;;;9.70;70.24;100332.06;4224892;28;26041;-66
2022/05/16 01:17:37;;;;;;;6.27;2.90;;;;;;;9.66;70.45;100333.34;4236706;28;20652;-66
2022/05/16 01:20:05;;;;;;;7.37;2.70;;;;;;;9.68;70.67;100325.22;4248214;28;20242;-67
2022/05/16 01:22:35;;;;;;;6.77;2.50;;;;;;;9.66;70.74;100328.03;4233851;28;20309;-67
2022/05/16 01:25:07;;;;;;;7.50;3.23;;;;;;;9.66;71.06;100328.03;4228207;28;20402;-67
2022/05/16 01:27:47;;;;;;;9.10;2.30;;;;;;;9.70;70.55;100328.59;4222323;28;21745;-68
2022/05/16 01:30:16;;;;;;;9.33;2.63;;;;;;;9.67;70.70;100334.19;4239477;28;22657;-67
2022/05/16 01:32:43;;;;;;;9.73;2.80;;;;;;;9.47;72.27;100336.00;4227791;28;20308;-66
2022/05/16 01:35:09;;;;;;;10.43;3.20;;;;;;;9.40;72.76;100332.25;4240629;28;20294;-69
2022/05/16 01:40:21;;;;;;;11.23;3.47;;;;;;;9.22;73.69;100335.56;4231845;28;20274;-66
2022/05/16 01:42:48;;;;;;;8.80;3.00;;;;;;;9.25;73.59;100339.78;4231716;28;20239;-67
2022/05/16 01:45:15;;;;;;;7.63;3.30;;;;;;;9.25;74.08;100337.97;4237182;28;20687;-66
2022/05/16 01:47:42;;;;;;;11.20;3.30;;;;;;;9.24;74.10;100338.94;4237653;28;20332;-66
2022/05/16 01:50:09;;;;;;;8.20;3.10;;;;;;;9.21;74.29;100341.88;4237238;28;22622;-67
2022/05/16 01:52:35;;;;;;;10.27;3.10;;;;;;;9.21;74.65;100338.38;4231645;28;25316;-67
2022/05/16 01:55:03;;;;;;;13.33;5.90;;;;;;;9.08;75.36;100341.28;4237973;28;20369;-66
2022/05/16 01:57:30;;;;;;;25.23;13.33;;;;;;;9.04;75.28;100339.91;4238096;28;20455;-66
2022/05/16 01:59:56;;;;;;;23.90;15.53;;;;;;;9.03;75.49;100340.88;4238533;28;20337;-66
2022/05/16 02:02:23;;;;;;;24.50;15.20;;;;;;;8.93;76.16;100334.72;4238282;28;20245;-67
2022/05/16 02:04:49;;;;;;;24.10;13.70;;;;;;;8.84;77.07;100339.84;4236983;28;25047;-67
2022/05/16 02:07:16;;;;;;;21.27;11.67;;;;;;;8.75;77.09;100345.13;4240503;28;20235;-65
2022/05/16 02:09:42;;;;;;;25.03;15.57;;;;;;;8.69;77.76;100349.19;4237435;28;20230;-66
2022/05/16 02:12:10;;;;;;;25.90;12.37;;;;;;;8.66;78.08;100347.63;4228005;28;20284;-66
2022/05/16 02:14:36;;;;;;;21.10;11.00;;;;;;;8.67;77.98;100353.78;4236501;28;20469;-68
2022/05/16 02:17:03;;;;;;;17.93;9.47;;;;;;;8.65;78.10;100351.25;4239843;28;24120;-67
2022/05/16 02:19:30;;;;;;;17.60;8.23;;;;;;;8.69;78.74;100349.19;4239971;28;21984;-65
2022/05/16 02:24:42;;;;;;;12.83;6.40;;;;;;;8.79;77.81;100358.00;4238121;28;20292;-66
2022/05/16 02:27:11;;;;;;;13.07;5.53;;;;;;;8.75;78.16;100364.53;4237393;28;20237;-67
2022/05/16 02:29:38;;;;;;;13.20;5.40;;;;;;;8.76;78.44;100355.63;4238936;28;20230;-68
2022/05/16 02:32:05;;;;;;;14.03;5.07;;;;;;;8.79;78.11;100357.16;4252272;28;20227;-67
2022/05/16 02:34:32;;;;;;;12.27;4.70;;;;;;;8.79;78.28;100365.13;4239617;28;20232;-66
2022/05/16 02:36:59;;;;;;;11.60;4.93;;;;;;;8.77;78.99;100372.38;4239467;28;20277;-67
2022/05/16 02:39:26;;;;;;;12.93;4.10;;;;;;;8.83;78.28;100372.69;4236239;28;20237;-70
2022/05/16 02:41:53;;;;;;;11.27;4.63;;;;;;;8.80;78.69;100380.06;4230424;28;20231;-65
2022/05/16 02:44:19;;;;;;;10.90;3.80;;;;;;;8.79;78.63;100376.56;4241836;28;21393;-67
2022/05/16 02:46:46;;;;;;;12.33;3.77;;;;;;;8.88;78.05;100370.44;4232263;28;23071;-66
2022/05/16 02:49:18;;;;;;;6.47;3.07;;;;;;;8.81;78.48;100377.28;4246263;28;20310;-67
2022/05/16 02:51:44;;;;;;;6.83;3.20;;;;;;;8.91;78.33;100373.81;4238538;28;20230;-66
2022/05/16 02:54:11;;;;;;;10.10;3.57;;;;;;;8.82;78.21;100376.28;4242320;28;20973;-66
2022/05/16 02:56:38;;;;;;;8.43;3.43;;;;;;;8.75;79.21;100374.31;4251899;28;22239;-66
2022/05/16 02:59:05;;;;;;;7.50;3.10;;;;;;;8.82;78.71;100376.28;4279516;28;25551;-66
2022/05/16 03:01:34;;;;;;;9.30;3.40;;;;;;;8.90;78.11;100372.13;4244165;28;20255;-67
2022/05/16 03:04:02;;;;;;;7.33;2.80;;;;;;;8.88;78.00;100374.94;4249330;28;20323;-66
2022/05/16 03:06:29;;;;;;;11.07;3.33;;;;;;;8.90;78.02;100366.81;4237430;28;20255;-67
2022/05/16 03:08:59;;;;;;;7.83;3.07;;;;;;;8.95;78.07;100372.56;4244340;28;20242;-66
2022/05/16 03:11:25;;;;;;;10.03;3.20;;;;;;;8.89;78.09;100368.63;4259254;28;20318;-67
2022/05/16 03:13:52;;;;;;;6.40;2.70;;;;;;;8.91;78.11;100365.84;4269025;28;21759;-67
2022/05/16 03:16:19;;;;;;;11.30;3.63;;;;;;;8.94;77.60;100373.53;4255654;28;22790;-68
2022/05/16 03:18:45;;;;;;;7.33;2.87;;;;;;;8.98;77.44;100374.94;4256643;28;20234;-69
2022/05/16 03:21:12;;;;;;;11.73;2.90;;;;;;;8.97;77.70;100370.63;4226702;28;20234;-66
2022/05/16 03:23:38;;;;;;;10.27;3.00;;;;;;;8.95;78.07;100369.91;4243115;28;22318;-67
2022/05/16 03:26:05;;;;;;;7.97;3.20;;;;;;;8.99;78.13;100371.31;4244585;28;20978;-66
2022/05/16 03:28:32;;;;;;;8.63;3.00;;;;;;;9.02;77.55;100376.34;4248154;28;20226;-66
2022/05/16 03:31:01;;;;;;;8.93;3.23;;;;;;;9.07;77.57;100376.78;4234403;28;22307;-68
2022/05/16 03:33:27;;;;;;;13.70;2.80;;;;;;;9.09;77.66;100377.50;4241599;28;20240;-67
2022/05/16 03:35:56;;;;;;;5.80;2.73;;;;;;;9.11;77.15;100374.69;4256123;28;20630;-66
2022/05/16 03:41:09;;;;;;;8.83;3.10;;;;;;;9.31;77.44;100376.41;4230165;28;20232;-67
2022/05/16 03:43:38;;;;;;;10.67;3.10;;;;;;;9.30;77.40;100377.38;4227156;28;20231;-67
2022/05/16 03:46:05;;;;;;;7.83;3.23;;;;;;;9.17;77.60;100377.63;4251271;28;22022;-66
2022/05/16 03:48:33;;;;;;;5.33;2.43;;;;;;;9.40;76.72;100374.72;4242384;28;20222;-68
2022/05/16 03:51:01;;;;;;;6.80;3.30;;;;;;;9.39;76.18;100383.66;4229949;28;20370;-67
2022/05/16 03:53:27;;;;;;;10.47;2.77;;;;;;;9.27;76.57;100385.59;4225626;28;20230;-67
2022/05/16 03:55:54;;;;;;;5.40;3.03;;;;;;;9.32;75.33;100379.88;4258877;28;20245;-67
2022/05/16 03:58:21;;;;;;;7.23;2.83;;;;;;;9.46;75.19;100385.66;4242733;28;20253;-66
2022/05/16 04:00:48;;;;;;;9.50;2.90;;;;;;;9.48;74.31;100385.47;4232659;28;20447;-68
2022/05/16 04:03:15;;;;;;;9.03;2.97;;;;;;;9.51;73.95;100393.19;4243154;28;20408;-66
2022/05/16 04:05:41;;;;;;;10.80;2.80;;;;;;;9.68;74.13;100392.50;4243964;28;20356;-66
2022/05/16 04:08:08;;;;;;;8.87;3.00;;;;;;;9.75;73.99;100389.28;4240808;28;22105;-67
2022/05/16 04:10:35;;;;;;;6.20;2.77;;;;;;;9.94;73.06;100394.56;4235952;28;20233;-67
2022/05/16 04:13:01;;;;;;;13.70;3.00;;;;;;;9.88;72.87;100393.31;4242516;28;20233;-66
2022/05/16 04:15:28;;;;;;;6.33;2.60;;;;;;;10.12;72.49;100398.19;4242741;28;20228;-67
2022/05/16 04:17:55;;;;;;;10.03;3.00;;;;;;;10.40;71.51;100403.59;4259020;28;20228;-67
2022/05/16 04:20:23;;;;;;;8.10;2.80;;;;;;;10.29;70.72;100404.59;4240287;28;20247;-67
2022/05/16 04:22:49;;;;;;;9.33;1.90;;;;;;;10.45;69.79;100411.16;4236967;28;21468;-66
2022/05/16 04:25:18;;;;;;;6.83;1.93;;;;;;;10.60;68.37;100411.53;4244658;28;21824;-66
2022/05/16 04:27:51;;;;;;;7.93;2.30;;;;;;;10.59;67.94;100412.50;4229077;28;21186;-68
2022/05/16 04:30:17;;;;;;;7.80;2.30;;;;;;;10.52;67.34;100405.09;4235247;28;21817;-66
2022/05/16 04:32:44;;;;;;;7.50;2.17;;;;;;;10.09;70.15;100402.94;4238596;28;20322;-68
2022/05/16 04:35:11;;;;;;;8.13;2.37;;;;;;;10.29;69.32;100414.41;4240840;28;20233;-68
2022/05/16 04:37:38;;;;;;;9.40;2.40;;;;;;;10.46;67.98;100408.34;4256790;28;20306;-66
2022/05/16 04:40:06;;;;;;;9.37;3.03;;;;;;;10.68;67.42;100414.31;4236299;28;21681;-69
2022/05/16 04:42:43;;;;;;;12.10;2.10;;;;;;;10.57;66.79;100408.16;4222114;28;20246;-68
2022/05/16 04:45:25;;;;;;;5.97;1.80;;;;;;;10.82;66.90;100421.81;4249039;28;20960;-67
2022/05/16 04:47:55;;;;;;;7.07;2.17;;;;;;;10.91;65.88;100417.41;4237965;28;22132;-66
2022/05/16 04:50:33;;;;;;;7.10;2.17;;;;;;;11.01;66.09;100420.03;4224185;28;20244;-65
2022/05/16 04:53:00;;;;;;;8.30;2.53;;;;;;;11.09;66.62;100420.94;4240726;28;21034;-67
2022/05/16 04:55:29;;;;;;;8.13;2.40;;;;;;;10.98;65.71;100416.69;4223357;28;20296;-67
2022/05/16 04:57:57;;;;;;;9.00;2.87;;;;;;;10.88;66.62;100413.22;4229894;28;20229;-66
2022/05/16 05:00:24;;;;;;;10.30;3.03;;;;;;;10.72;67.71;100411.22;4228825;28;21859;-66
2022/05/16 05:02:50;;;;;;;7.90;2.60;;;;;;;10.61;68.13;100408.72;4223836;28;20231;-65
2022/05/16 05:05:21;;;;;;;11.37;2.87;;;;;;;10.72;67.97;100415.66;4241968;28;20313;-66
2022/05/16 05:07:48;;;;;;;9.57;2.90;;;;;;;10.88;66.93;100410.53;4244459;28;20449;-66
2022/05/16 05:15:52;;;;;;;8.10;3.17;;;;;;;11.03;66.46;100421.56;4250313;28;20230;-67
2022/05/16 05:18:18;;;;;;;15.13;3.27;;;;;;;11.17;66.50;100420.22;4238148;28;20302;-67
2022/05/16 05:20:45;;;;;;;9.77;3.47;;;;;;;11.17;66.18;100420.22;4251498;28;23247;-68
2022/05/16 05:23:11;;;;;;;11.60;2.90;;;;;;;11.22;65.90;100425.94;4238691;28;20260;-67
2022/05/16 05:25:38;;;;;;;13.87;3.90;;;;;;;11.35;65.42;100418.41;4248834;28;20231;-65
2022/05/16 05:28:05;;;;;;;12.83;3.67;;;;;;;11.59;64.91;100425.00;4239058;28;27128;-66
2022/05/16 05:30:33;;;;;;;10.00;2.73;;;;;;;11.67;62.52;100422.41;4230422;28;20236;-65
2022/05/16 05:32:59;;;;;;;11.57;2.43;;;;;;;11.69;61.97;100419.59;4240536;28;20306;-66
2022/05/16 05:35:26;;;;;;;5.40;1.63;;;;;;;11.97;60.36;100425.69;4228976;28;20241;-68
2022/05/16 05:37:55;;;;;;;8.37;1.90;;;;;;;12.29;59.49;100427.78;4230012;28;20472;-64
2022/05/16 05:40:23;;;;;;;8.33;1.97;;;;;;;12.84;57.46;100421.25;4235128;28;20225;-65
2022/05/16 05:42:50;;;;;;;7.57;1.97;;;;;;;13.37;55.02;100427.28;4238472;28;20226;-62
2022/05/16 05:45:17;;;;;;;9.10;2.10;;;;;;;14.15;51.93;100438.41;4248107;28;20310;-63
2022/05/16 05:47:45;;;;;;;4.53;1.87;;;;;;;14.82;49.21;100439.13;4227680;28;20325;-65
2022/05/16 05:50:12;;;;;;;6.27;2.00;;;;;;;15.30;47.03;100448.81;4237557;28;26140;-65
2022/05/16 05:52:39;;;;;;;5.20;1.43;;;;;;;16.04;44.78;100462.63;4253285;28;20225;-66
2022/05/16 05:55:06;;;;;;;5.13;1.47;;;;;;;16.59;41.91;100465.97;4248937;28;26391;-67
2022/05/16 05:57:33;;;;;;;7.13;1.43;;;;;;;16.72;41.87;100462.69;4246532;28;25139;-64
2022/05/16 06:00:00;;;;;;;11.13;1.80;;;;;;;16.99;40.34;100465.75;4237183;28;23141;-64
2022/05/16 06:02:27;;;;;;;5.77;1.47;;;;;;;16.95;39.61;100465.31;4235337;28;20242;-65
2022/05/16 06:04:54;;;;;;;8.13;1.77;;;;;;;16.91;38.44;100461.31;4236214;28;22973;-63
2022/05/16 06:07:21;;;;;;;5.07;1.40;;;;;;;17.03;39.10;100467.06;4241947;28;21917;-64
2022/05/16 06:09:48;;;;;;;5.97;1.50;;;;;;;17.99;37.34;100462.38;4235469;28;20298;-65
2022/05/16 06:12:14;;;;;;;7.03;1.80;;;;;;;19.12;34.88;100479.38;4245171;28;21211;-64
2022/05/16 06:14:43;;;;;;;3.87;1.63;;;;;;;19.19;33.70;100474.03;4243638;28;20228;-62
2022/05/16 06:17:11;;;;;;;5.43;1.60;;;;;;;19.32;33.57;100475.97;4226622;28;22201;-66
2022/05/16 06:19:38;;;;;;;6.60;1.23;;;;;;;20.19;32.18;100475.13;4243800;28;20254;-66
2022/05/16 06:22:05;;;;;;;8.30;1.70;;;;;;;20.99;30.90;100491.31;4229948;28;20225;-65
2022/05/16 06:27:17;;;;;;;4.03;1.40;;;;;;;22.20;28.64;100483.44;4272380;28;20221;-65
2022/05/16 06:29:44;;;;;;;4.20;1.30;;;;;;;22.50;28.07;100491.75;4238490;28;25290;-65
2022/05/16 06:32:11;;;;;;;5.10;1.37;;;;;;;22.02;27.85;100485.03;4232112;28;21202;-63
2022/05/16 06:34:37;;;;;;;2.63;1.07;;;;;;;22.39;27.58;100490.63;4252678;28;20240;-64
2022/05/16 06:37:04;;;;;;;5.27;1.60;;;;;;;22.62;27.27;100500.84;4257332;28;22392;-65
2022/05/16 06:39:30;;;;;;;7.00;1.50;;;;;;;22.71;26.72;100494.09;4236652;28;20226;-63
2022/05/16 06:41:57;;;;;;;3.60;1.17;;;;;;;22.74;26.45;100492.81;4249231;28;21277;-65
2022/05/16 06:44:24;;;;;;;8.33;1.50;;;;;;;22.34;27.40;100493.16;4240065;28;21191;-65
2022/05/16 06:46:56;;;;;;;7.33;1.40;;;;;;;22.54;26.52;100498.41;4247898;28;21145;-66
2022/05/16 06:49:23;;;;;;;6.33;1.33;;;;;;;22.27;26.75;100495.94;4243666;28;20238;-67
2022/05/16 06:51:50;;;;;;;3.60;1.43;;;;;;;22.56;26.66;100490.88;4251093;28;20232;-67
2022/05/16 06:54:16;;;;;;;8.30;1.20;;;;;;;22.59;26.27;100498.56;4226027;28;21357;-65
2022/05/16 06:56:43;;;;;;;2.70;1.10;;;;;;;22.06;27.02;100491.66;4217157;28;21838;-67
2022/05/16 06:59:09;;;;;;;3.50;1.20;;;;;;;21.95;27.55;100497.78;4229815;28;20245;-66
2022/05/16 07:01:36;;;;;;;3.27;1.30;;;;;;;22.67;26.84;100503.72;4223966;28;20682;-65
2022/05/16 07:04:04;;;;;;;3.53;1.00;;;;;;;22.63;25.68;100510.63;4283989;28;20717;-64
2022/05/16 07:06:31;;;;;;;3.70;1.17;;;;;;;22.58;25.26;100515.06;4244337;28;20238;-64
2022/05/16 07:08:58;;;;;;;3.03;1.20;;;;;;;23.23;25.08;100507.34;4244660;28;21134;-65
2022/05/16 07:11:25;;;;;;;7.07;1.20;;;;;;;24.57;23.16;100517.19;4241729;28;20232;-66
2022/05/16 07:13:52;;;;;;;3.40;1.07;;;;;;;25.44;22.23;100516.41;4255120;28;20755;-66
2022/05/16 07:16:19;;;;;;;4.00;0.93;;;;;;;25.96;21.62;100519.06;4241935;28;21183;-65
2022/05/16 07:18:45;;;;;;;5.57;1.17;;;;;;;26.92;20.14;100532.66;4248187;28;20307;-66
2022/05/16 07:21:12;;;;;;;5.07;0.87;;;;;;;27.33;18.91;100529.72;4251287;28;20223;-67
2022/05/16 07:23:39;;;;;;;6.73;0.93;;;;;;;27.40;18.55;100526.78;4247312;28;21729;-65
2022/05/16 07:28:51;;;;;;;5.40;1.13;;;;;;;25.79;19.58;100518.19;4240937;28;22511;-65
2022/05/16 07:31:17;;;;;;;3.73;0.67;;;;;;;24.99;20.69;100514.34;4253815;28;20230;-68
2022/05/16 07:33:44;;;;;;;2.27;0.80;;;;;;;24.32;21.16;100510.03;4273670;28;20637;-67
2022/05/16 07:36:11;;;;;;;8.47;1.00;;;;;;;24.01;21.91;100505.72;4251703;28;20229;-68
2022/05/16 07:38:37;;;;;;;5.53;0.90;;;;;;;22.53;23.15;100499.47;4236831;28;21274;-67
2022/05/16 07:41:04;;;;;;;5.90;1.10;;;;;;;21.61;24.93;100489.03;4263636;28;20712;-68
2022/05/16 07:43:31;;;;;;;5.33;0.90;;;;;;;21.65;25.19;100494.84;4235559;28;20907;-64
2022/05/16 07:45:57;;;;;;;7.37;0.97;;;;;;;21.53;24.35;100497.38;4246993;28;24389;-66
2022/05/16 07:48:27;;;;;;;4.23;1.30;;;;;;;21.66;24.13;100491.09;4251310;28;20234;-65
2022/05/16 07:50:53;;;;;;;3.40;0.93;;;;;;;20.68;24.96;100494.72;4273072;28;21173;-65
2022/05/16 07:53:21;;;;;;;3.97;0.97;;;;;;;20.29;24.99;100492.81;4290275;28;21393;-68
2022/05/16 07:55:52;;;;;;;6.60;1.10;;;;;;;20.27;26.09;100494.88;4259932;28;20234;-65
2022/05/16 07:58:20;;;;;;;3.67;1.00;;;;;;;21.02;26.07;100496.28;4304078;28;20290;-67
2022/05/16 08:00:52;;;;;;;4.03;1.00;;;;;;;20.18;24.76;100488.84;4264195;28;20436;-66
2022/05/16 08:03:21;;;;;;;2.50;1.07;;;;;;;19.95;24.96;100490.09;4255003;28;20227;-67
2022/05/16 08:05:48;;;;;;;5.53;0.80;;;;;;;19.38;25.99;100475.97;4255977;28;20470;-68
2022/05/16 08:11:01;;;;;;;3.93;1.00;;;;;;;18.92;27.76;100484.69;4268369;28;20400;-68
2022/05/16 08:13:28;;;;;;;2.53;0.90;;;;;;;19.76;26.17;100480.91;4232461;28;20286;-69
2022/05/16 08:15:55;;;;;;;6.43;0.97;;;;;;;19.53;26.08;100472.31;4261151;28;20284;-67
2022/05/16 08:18:22;;;;;;;3.13;0.93;;;;;;;19.05;26.73;100477.69;4261789;28;20821;-68
2022/05/16 08:20:51;;;;;;;3.87;0.77;;;;;;;19.32;26.61;100484.88;4274008;28;20271;-69
2022/05/16 08:23:25;;;;;;;3.00;0.70;;;;;;;19.53;27.42;100472.31;4256954;28;25216;-58
2022/05/16 08:25:53;;;;;;;2.30;0.90;;;;;;;19.88;26.95;100477.59;4263713;28;20412;-68
2022/05/16 08:28:22;;;;;;;4.03;0.63;;;;;;;19.73;25.88;100478.59;4240802;28;22165;-68
2022/05/16 08:30:49;;;;;;;2.43;0.70;;;;;;;19.54;26.68;100476.66;4222918;28;20687;-69
2022/05/16 08:33:17;;;;;;;4.60;0.83;;;;;;;18.99;28.13;100471.25;4243868;28;20246;-68
2022/05/16 08:35:43;;;;;;;2.73;0.77;;;;;;;18.73;28.12;100479.94;4239531;28;20243;-68
2022/05/16 08:40:58;;;;;;;3.33;0.70;;;;;;;18.83;28.01;100474.25;4246637;28;21586;-68
2022/05/16 08:43:49;;;;;;;6.20;0.80;;;;;;;19.12;28.03;100482.06;4231187;28;21317;-68
2022/05/16 08:46:43;;;;;;;2.80;0.70;;;;;;;18.63;28.71;100479.47;4269716;28;20238;-69
2022/05/16 08:49:20;;;;;;;2.43;0.70;;;;;;;18.69;28.43;100482.22;4242076;28;21341;-67
2022/05/16 08:52:01;;;;;;;1.77;0.60;;;;;;;19.13;24.55;100485.63;4267614;28;20378;-69
2022/05/16 08:54:40;;;;;;;7.07;0.80;;;;;;;18.51;25.48;100481.88;4253019;28;20330;-68
2022/05/16 08:57:10;;;;;;;4.97;0.80;;;;;;;18.45;25.99;100475.41;4245564;28;20305;-68
2022/05/16 08:59:39;;;;;;;5.17;0.60;;;;;;;18.66;24.83;100484.47;4227807;28;21543;-69
2022/05/16 09:02:11;;;;;;;2.10;0.50;;;;;;;18.50;25.00;100481.06;4239322;28;22297;-69
2022/05/16 09:05:02;;;;;;;3.27;0.57;;;;;;;18.95;24.52;100478.88;4241811;28;21019;-67
2022/05/16 09:07:38;;;;;;;1.17;0.40;;;;;;;18.64;23.74;100489.25;4260242;28;22168;-66
2022/05/16 09:10:14;;;;;;;2.17;0.50;;;;;;;18.51;24.28;100485.41;4221442;28;20407;-69
2022/05/16 09:13:14;;;;;;;2.67;0.63;;;;;;;18.61;25.23;100487.75;4251196;28;22242;-69
2022/05/16 09:15:49;;;;;;;2.43;0.60;;;;;;;19.06;25.93;100480.19;4238858;28;20234;-68
2022/05/16 09:18:25;;;;;;;1.97;0.50;;;;;;;18.93;25.23;100472.84;4249887;28;20494;-68
2022/05/16 09:21:14;;;;;;;5.50;0.60;;;;;;;18.82;24.36;100476.09;4237817;28;20613;-69
2022/05/16 09:23:44;;;;;;;3.43;1.00;;;;;;;18.45;25.99;100480.81;4238066;28;21061;-68
2022/05/16 09:26:28;;;;;;;2.43;0.80;;;;;;;18.32;27.05;100475.31;4253308;28;20239;-67
2022/05/16 09:29:06;;;;;;;1.30;0.50;;;;;;;18.32;23.19;100486.09;4219573;28;22266;-67
2022/05/16 09:31:43;;;;;;;2.47;0.40;;;;;;;17.96;23.08;100487.00;4242278;28;20229;-68
2022/05/16 09:34:10;;;;;;;3.33;0.60;;;;;;;17.98;23.14;100482.28;4247721;28;21689;-67
2022/05/16 09:36:40;;;;;;;2.00;0.60;;;;;;;18.46;24.38;100485.16;4246943;28;20234;-68
2022/05/16 09:39:09;;;;;;;1.43;0.50;;;;;;;18.65;24.24;100488.19;4232513;28;20316;-68
2022/05/16 09:41:45;;;;;;;1.00;0.50;;;;;;;18.79;24.32;100479.19;4236703;28;20299;-68
2022/05/16 09:44:21;;;;;;;1.80;0.50;;;;;;;18.27;24.80;100483.16;4272498;28;20240;-68
2022/05/16 09:46:48;;;;;;;3.07;0.60;;;;;;;18.50;25.88;100486.44;4259119;28;22112;-69
2022/05/16 09:49:23;;;;;;;6.67;0.60;;;;;;;18.05;24.76;100483.16;4254864;28;20688;-67
2022/05/16 09:51:52;;;;;;;2.67;0.77;;;;;;;18.22;24.92;100483.72;4239419;28;21550;-68
2022/05/16 09:54:28;;;;;;;4.30;1.00;;;;;;;18.35;25.66;100481.16;4246006;28;22980;-67
2022/05/16 09:57:05;;;;;;;1.20;0.53;;;;;;;18.61;24.07;100486.91;4272304;28;22157;-71
2022/05/16 09:59:51;;;;;;;10.17;0.90;;;;;;;18.60;23.95;100479.88;4235833;28;20235;-70
2022/05/16 10:02:29;;;;;;;2.07;0.83;;;;;;;18.89;23.16;100479.66;4266265;28;21190;-69
2022/05/16 10:05:02;;;;;;;1.93;0.60;;;;;;;19.02;24.13;100478.09;4242297;28;20238;-66
2022/05/16 10:07:43;;;;;;;2.80;0.83;;;;;;;19.13;24.09;100477.53;4240369;28;21166;-67
2022/05/16 10:10:34;;;;;;;1.90;0.80;;;;;;;18.72;24.25;100481.81;4259915;28;20267;-66
2022/05/16 10:13:01;;;;;;;5.33;0.90;;;;;;;18.47;24.75;100478.75;4266880;28;20247;-65
2022/05/16 10:15:28;;;;;;;2.33;0.70;;;;;;;18.44;24.55;100473.75;4242146;28;20312;-67
2022/05/16 10:17:58;;;;;;;3.00;0.60;;;;;;;18.47;24.21;100476.06;4246802;28;20331;-67
2022/05/16 10:20:29;;;;;;;3.53;0.60;;;;;;;18.50;24.58;100475.66;4220371;28;20249;-67
2022/05/16 10:22:59;;;;;;;2.60;0.60;;;;;;;18.31;24.11;100481.75;4242675;28;20999;-65
2022/05/16 10:25:37;;;;;;;3.57;0.80;;;;;;;18.56;25.60;100480.25;4248413;28;22499;-66
2022/05/16 10:28:11;;;;;;;1.97;0.53;;;;;;;18.84;23.24;100479.44;4239740;28;22262;-67
2022/05/16 10:33:26;;;;;;;1.10;0.50;;;;;;;19.18;23.50;100462.41;4245642;28;20236;-67
2022/05/16 10:36:03;;;;;;;3.23;0.70;;;;;;;19.18;23.41;100461.56;4234997;28;22231;-64
2022/05/16 10:38:56;;;;;;;1.20;0.63;;;;;;;19.31;24.15;100464.31;4238521;28;20288;-64
2022/05/16 10:41:31;;;;;;;2.10;0.70;;;;;;;19.45;22.79;100477.88;4228020;28;20369;-66
2022/05/16 10:44:08;;;;;;;2.97;0.80;;;;;;;19.25;23.18;100461.63;4232822;28;20312;-65
2022/05/16 10:46:39;;;;;;;1.57;0.63;;;;;;;19.50;21.82;100464.59;4237535;28;20279;-66
2022/05/16 10:49:18;;;;;;;3.53;0.70;;;;;;;19.34;22.24;100465.81;4229126;28;20227;-74
2022/05/16 10:52:08;;;;;;;4.10;0.80;;;;;;;19.13;21.23;100466.75;4262764;28;20264;-64
2022/05/16 10:54:35;;;;;;;3.20;0.50;;;;;;;18.66;22.66;100457.50;4282217;28;20325;-64
2022/05/16 10:57:39;;;;;;;4.43;0.80;;;;;;;19.25;24.52;100454.34;4237427;28;20409;-65
2022/05/16 11:00:18;;;;;;;1.57;0.60;;;;;;;19.36;22.77;100459.16;4274042;28;20240;-65
2022/05/16 11:03:11;;;;;;;3.13;0.57;;;;;;;19.49;22.35;100457.53;4255930;28;22257;-65
2022/05/16 11:06:38;;;;;;;2.03;0.60;;;;;;;19.14;22.84;100439.56;4287809;28;20230;-64
2022/05/16 11:09:17;;;;;;;3.07;0.50;;;;;;;19.02;22.27;100434.94;4197604;28;22107;-64
2022/05/16 11:11:51;;;;;;;2.57;0.70;;;;;;;19.06;22.62;100425.41;4216447;28;22789;-68
2022/05/16 11:14:25;;;;;;;3.67;0.63;;;;;;;19.34;22.55;100433.41;4229808;28;20235;-65
2022/05/16 11:16:58;;;;;;;2.53;0.50;;;;;;;19.40;22.90;100427.19;4253042;28;20290;-66
2022/05/16 11:19:25;;;;;;;3.17;1.00;;;;;;;19.22;23.32;100414.25;4244278;28;20234;-66
2022/05/16 11:21:57;;;;;;;2.13;0.50;;;;;;;19.23;22.35;100417.81;4249058;28;20231;-67
2022/05/16 11:24:49;;;;;;;3.40;0.77;;;;;;;19.47;22.16;100419.94;4246855;28;21815;-65
2022/05/16 11:27:51;;;;;;;1.17;0.60;;;;;;;19.62;21.86;100419.78;4274115;28;20246;-67
2022/05/16 11:30:30;;;;;;;1.17;0.60;;;;;;;19.18;21.96;100413.84;4259758;28;20235;-66
2022/05/16 11:33:02;;;;;;;1.83;0.60;;;;;;;19.25;22.28;100421.16;4233928;28;20238;-67
2022/05/16 11:35:37;;;;;;;3.30;0.77;;;;;;;19.63;21.42;100417.91;4251150;28;20222;-66
2022/05/16 11:38:28;;;;;;;0.80;0.40;;;;;;;19.40;21.88;100414.53;4234678;28;20231;-68
2022/05/16 11:41:28;;;;;;;1.47;0.60;;;;;;;19.58;21.31;100413.97;4265989;28;20266;-66
2022/05/16 11:44:04;;;;;;;1.23;0.70;;;;;;;19.47;22.35;100409.16;4256367;28;22855;-67
2022/05/16 11:46:47;;;;;;;1.13;0.60;;;;;;;19.71;21.44;100409.63;4253206;28;20766;-68
2022/05/16 11:49:49;;;;;;;1.43;0.60;;;;;;;19.89;21.60;100400.94;4283385;28;21590;-69
2022/05/16 11:52:54;;;;;;;3.87;0.60;;;;;;;19.74;20.72;100410.06;4246685;28;20395;-70
2022/05/16 12:01:27;;;;;;;1.07;0.60;;;;;;;19.63;21.67;100405.25;4258708;28;22400;-69
2022/05/16 12:04:16;;;;;;;2.70;0.67;;;;;;;19.67;21.31;100397.59;4343436;28;20275;-69
2022/05/16 12:06:48;;;;;;;1.50;0.40;;;;;;;19.59;21.25;100395.88;4272573;28;23624;-68
2022/05/16 12:09:18;;;;;;;0.87;0.60;;;;;;;19.59;21.45;100393.19;4247743;28;20269;-68
2022/05/16 12:11:54;;;;;;;2.13;0.63;;;;;;;19.89;21.62;100404.47;4249994;28;20239;-70
2022/05/16 12:14:32;;;;;;;1.83;0.50;;;;;;;20.01;20.94;100401.97;4253323;28;22487;-70
2022/05/16 12:17:25;;;;;;;1.67;0.57;;;;;;;19.92;20.71;100397.81;4269564;28;20237;-69
2022/05/16 12:19:52;;;;;;;1.63;0.67;;;;;;;20.07;21.24;100394.94;4255639;28;20297;-68